createdAt,value
2017-10-22T13:11:17.559Z,41.17
2017-10-22T13:13:43.620Z,47.80
2017-10-22T13:16:09.691Z,40.93
2017-10-22T13:18:35.922Z,36.80
2017-10-22T13:21:02.048Z,40.93
2017-10-22T13:28:49.834Z,39.50
2017-10-22T13:31:17.219Z,37.43
2017-10-22T13:33:43.618Z,25.00
2017-10-22T13:36:11.322Z,19.30
2017-10-22T13:38:38.472Z,101.33
2017-10-22T13:41:08.670Z,160.50
2017-10-22T13:43:35.361Z,161.37
2017-10-22T13:46:02.417Z,161.27
2017-10-22T13:48:28.712Z,157.93
2017-10-22T13:50:56.116Z,148.30
2017-10-22T13:53:22.553Z,141.67
2017-10-22T13:55:49.412Z,140.03
2017-10-22T13:58:16.105Z,156.03
2017-10-22T14:00:42.272Z,143.87
2017-10-22T14:03:09.568Z,140.00
2017-10-22T14:05:35.847Z,145.97
2017-10-22T14:08:02.962Z,152.93
2017-10-22T14:10:29.780Z,161.13
2017-10-22T14:12:57.055Z,166.30
2017-10-22T14:15:24.116Z,168.83
2017-10-22T14:17:50.368Z,160.77
2017-10-22T14:20:16.790Z,152.93
2017-10-22T14:22:42.928Z,148.40
2017-10-22T14:25:09.923Z,162.40
2017-10-22T14:27:36.186Z,162.73
2017-10-22T14:30:02.393Z,169.47
2017-10-22T14:32:29.157Z,153.27
2017-10-22T14:34:56.065Z,158.53
2017-10-22T14:37:23.142Z,161.20
2017-10-22T14:39:49.963Z,173.07
2017-10-22T14:42:16.217Z,156.80
2017-10-22T14:44:43.349Z,166.73
2017-10-22T14:47:09.844Z,228.23
2017-10-22T14:49:36.708Z,137.90
2017-10-22T14:52:03.412Z,150.03
2017-10-22T14:54:30.070Z,136.73
2017-10-22T14:56:57.337Z,145.20
2017-10-22T14:59:24.174Z,136.00
2017-10-22T15:01:50.777Z,138.73
2017-10-22T15:04:17.292Z,146.30
2017-10-22T15:06:44.464Z,149.17
2017-10-22T15:09:11.622Z,138.20
2017-10-22T15:11:38.632Z,144.10
2017-10-22T15:14:06.152Z,141.80
2017-10-22T15:16:32.370Z,129.07
2017-10-22T15:18:58.637Z,145.00
2017-10-22T15:21:25.098Z,151.60
2017-10-22T15:23:52.223Z,143.13
2017-10-22T15:26:19.479Z,152.80
2017-10-22T15:35:23.129Z,139.93
2017-10-22T15:37:50.179Z,158.73
2017-10-22T15:40:17.274Z,84.77
2017-10-22T15:42:44.080Z,31.87
2017-10-22T15:45:11.262Z,25.17
2017-10-22T15:47:37.839Z,109.87
2017-10-22T15:50:05.723Z,115.37
2017-10-22T15:52:32.888Z,117.77
2017-10-22T15:56:49.591Z,53.33
2017-10-22T15:59:16.349Z,38.70
2017-10-22T16:01:43.220Z,32.10
2017-10-22T16:04:09.337Z,30.57
2017-10-22T16:06:35.396Z,35.33
2017-10-22T16:11:29.405Z,127.63
2017-10-22T16:13:55.641Z,148.30
2017-10-22T16:16:21.869Z,151.93
2017-10-22T16:18:48.091Z,143.43
2017-10-22T16:21:14.325Z,151.30
2017-10-22T16:23:40.561Z,142.10
2017-10-22T16:26:08.021Z,158.70
2017-10-22T16:28:35.482Z,154.33
2017-10-22T16:31:01.703Z,161.23
2017-10-22T16:33:27.941Z,161.13
2017-10-22T16:35:54.164Z,163.40
2017-10-22T16:38:20.402Z,160.17
2017-10-22T16:40:46.624Z,167.07
2017-10-22T16:43:14.113Z,179.90
2017-10-22T16:45:40.315Z,186.27
2017-10-22T16:48:06.552Z,191.57
2017-10-22T16:50:32.779Z,227.00
2017-10-22T16:52:59.015Z,61.50
2017-10-22T16:55:26.696Z,45.23
2017-10-22T16:57:53.012Z,45.83
2017-10-22T17:00:20.868Z,49.20
2017-10-22T17:02:47.655Z,39.03
2017-10-22T17:05:14.470Z,48.37
2017-10-22T17:07:40.694Z,45.93
2017-10-22T17:10:06.929Z,43.57
2017-10-22T17:12:33.153Z,44.03
